KLGU/LGU METAR and TAF weather

Enter ICAO airport designator
Station Type Date Time Source
KLGU METAR 2022/06/27 18:51 UTC NOAA

KLGU 271851Z AUTO VRB04KT 10SM CLR 28/07 A3026 RMK AO2 SLP199 T02780067


Station Type Date Time Source
KLGU Decoded METAR 2022/06/27 18:51 UTC NOAA

LOGAN CACHE AIRPORT, UT, United States (KLGU) 41-47N 111-51W 1355M
Jun 27, 2022 - 02:51 PM EDT / 2022.06.27 1851 UTC
Wind: Variable at 5 MPH (4 KT):0
Visibility: 10 mile(s):0
Sky conditions: clear
Temperature: 82.0 F (27.8 C)
Dew Point: 44.1 F (6.7 C)
Relative Humidity: 26%
Pressure (altimeter): 30.26 in. Hg (1024 hPa)
ob: KLGU 271851Z AUTO VRB04KT 10SM CLR 28/07 A3026 RMK AO2 SLP199 T02780067
cycle: 19

Station Type Date Time Source
KLGU TAF 2022/06/27 18:36 UTC NOAA

TAF KLGU 271733Z 2718/2818 35006KT P6SM FEW130
FM280300 VRB03KT P6SM SKC
FM281600 VRB05KT P6SM SCT150

Example: see airport list